createdAt,value
2023-05-22T00:00:00.692Z,7.81
2023-05-22T00:02:27.464Z,8.59
2023-05-22T00:04:54.168Z,8.41
2023-05-22T00:07:20.853Z,8.20
2023-05-22T00:09:47.621Z,7.51
2023-05-22T00:12:14.289Z,7.53
2023-05-22T00:14:40.981Z,7.74
2023-05-22T00:17:07.722Z,7.98
2023-05-22T00:19:34.546Z,8.95
2023-05-22T00:22:01.270Z,8.67
2023-05-22T00:24:27.939Z,7.26
2023-05-22T00:26:54.614Z,6.54
2023-05-22T00:29:21.247Z,6.48
2023-05-22T00:31:47.914Z,6.48
2023-05-22T00:34:14.635Z,6.52
2023-05-22T00:36:41.295Z,6.02
2023-05-22T00:39:08.050Z,6.74
2023-05-22T00:41:34.702Z,6.86
2023-05-22T00:44:01.561Z,6.71
2023-05-22T00:46:28.490Z,6.61
2023-05-22T00:48:55.201Z,6.70
2023-05-22T00:51:21.928Z,6.32
2023-05-22T00:53:48.895Z,6.67
2023-05-22T00:56:15.658Z,6.10
2023-05-22T00:58:42.309Z,6.17
2023-05-22T01:01:10.322Z,6.25
2023-05-22T01:03:38.400Z,6.02
2023-05-22T01:06:05.156Z,5.78
2023-05-22T01:08:31.792Z,6.01
2023-05-22T01:11:04.707Z,6.50
2023-05-22T01:14:09.282Z,6.42
2023-05-22T01:16:44.328Z,6.27
2023-05-22T01:19:29.746Z,5.99
2023-05-22T01:22:18.265Z,5.71
2023-05-22T01:25:14.565Z,6.20
2023-05-22T01:27:53.338Z,5.91
2023-05-22T01:30:25.591Z,6.28
2023-05-22T01:32:52.322Z,6.01
2023-05-22T01:35:19.043Z,5.89
2023-05-22T01:37:45.797Z,6.74
2023-05-22T01:40:12.853Z,8.29
2023-05-22T01:42:39.794Z,6.30
2023-05-22T01:45:08.603Z,6.18
2023-05-22T01:47:35.365Z,7.53
2023-05-22T01:50:02.131Z,7.24
2023-05-22T01:52:50.067Z,5.64
2023-05-22T01:55:19.884Z,5.75
2023-05-22T01:57:52.678Z,5.85
2023-05-22T02:00:19.597Z,5.66
2023-05-22T02:02:48.948Z,6.23
2023-05-22T02:05:16.655Z,6.79
2023-05-22T02:07:43.816Z,7.28
2023-05-22T02:10:10.608Z,6.51
2023-05-22T02:12:37.524Z,6.12
2023-05-22T02:15:04.964Z,5.81
2023-05-22T02:17:31.685Z,5.73
2023-05-22T02:19:58.344Z,5.71
2023-05-22T02:22:25.052Z,5.79
2023-05-22T02:24:51.752Z,5.14
2023-05-22T02:27:18.438Z,5.25
2023-05-22T02:29:45.090Z,4.70
2023-05-22T02:32:11.848Z,4.84
2023-05-22T02:34:38.560Z,4.54
2023-05-22T02:37:05.422Z,4.79
2023-05-22T02:39:32.106Z,4.49
2023-05-22T02:41:58.742Z,4.79
2023-05-22T02:44:25.385Z,5.00
2023-05-22T02:46:52.198Z,4.68
2023-05-22T02:49:18.901Z,4.73
2023-05-22T02:51:45.583Z,4.07
2023-05-22T02:54:12.277Z,4.39
2023-05-22T02:56:38.970Z,4.35
2023-05-22T02:59:05.651Z,4.42
2023-05-22T03:01:32.407Z,4.17
2023-05-22T03:03:59.182Z,3.93
2023-05-22T03:06:25.969Z,4.16
2023-05-22T03:08:52.976Z,4.09
2023-05-22T03:11:19.617Z,3.92
2023-05-22T03:13:46.269Z,4.00
2023-05-22T03:16:12.951Z,4.20
2023-05-22T03:18:39.637Z,3.78
2023-05-22T03:21:06.311Z,3.69
2023-05-22T03:23:32.992Z,4.13
2023-05-22T03:25:59.702Z,4.61
2023-05-22T03:28:26.352Z,5.14
2023-05-22T03:30:53.031Z,4.72
2023-05-22T03:33:19.823Z,4.24
2023-05-22T03:35:46.508Z,4.20
2023-05-22T03:38:13.178Z,4.50
2023-05-22T03:40:40.183Z,4.45
2023-05-22T03:43:06.969Z,4.32
2023-05-22T03:45:33.682Z,4.67
2023-05-22T03:48:00.467Z,4.50
2023-05-22T03:50:27.170Z,4.83
2023-05-22T03:52:53.862Z,4.91
2023-05-22T03:55:20.539Z,5.45
2023-05-22T03:57:47.248Z,5.74
2023-05-22T04:00:14.238Z,6.31
2023-05-22T04:02:41.055Z,6.56
2023-05-22T04:05:08.168Z,6.91
2023-05-22T04:07:34.850Z,7.35
2023-05-22T04:10:01.589Z,7.26
2023-05-22T04:12:28.335Z,7.36
2023-05-22T04:14:54.998Z,7.15
2023-05-22T04:17:21.725Z,6.51
2023-05-22T04:19:48.549Z,6.95
2023-05-22T04:22:15.578Z,7.11
2023-05-22T04:24:42.230Z,7.18
2023-05-22T04:27:08.880Z,7.45
2023-05-22T04:29:35.589Z,6.86
2023-05-22T04:32:02.264Z,7.34
2023-05-22T04:34:28.937Z,7.20
2023-05-22T04:36:55.601Z,7.02
2023-05-22T04:39:22.317Z,9.08
2023-05-22T04:41:48.937Z,8.07
2023-05-22T04:44:15.628Z,8.43
2023-05-22T04:46:42.374Z,8.39
2023-05-22T04:49:09.167Z,8.15
2023-05-22T04:51:35.862Z,7.67
2023-05-22T04:54:02.539Z,7.09
2023-05-22T04:56:36.473Z,7.09
2023-05-22T04:59:03.882Z,6.69
2023-05-22T05:01:32.896Z,6.33
2023-05-22T05:04:00.168Z,6.34
2023-05-22T05:06:27.089Z,6.68
2023-05-22T05:08:53.745Z,6.54
2023-05-22T05:11:20.509Z,5.80
2023-05-22T05:13:47.239Z,5.91
2023-05-22T05:16:13.953Z,5.65
2023-05-22T05:18:40.699Z,6.19
2023-05-22T05:21:07.415Z,6.24
2023-05-22T05:23:34.102Z,6.09
2023-05-22T05:26:00.793Z,6.11
2023-05-22T05:28:27.506Z,6.14
2023-05-22T05:30:54.145Z,6.46
2023-05-22T05:33:20.865Z,7.58
2023-05-22T05:35:47.550Z,6.37
2023-05-22T05:38:14.192Z,6.55
2023-05-22T05:40:41.047Z,6.29
2023-05-22T05:43:09.076Z,6.37
2023-05-22T05:45:36.004Z,6.35
2023-05-22T05:48:02.762Z,6.63
2023-05-22T05:50:29.516Z,6.93
2023-05-22T05:52:56.161Z,7.61
2023-05-22T05:55:22.879Z,6.81
2023-05-22T05:57:49.651Z,7.33
2023-05-22T06:00:16.402Z,7.19
2023-05-22T06:02:43.179Z,7.86
2023-05-22T06:05:10.106Z,6.43
2023-05-22T06:07:36.803Z,12.14
2023-05-22T06:10:05.358Z,7.05
2023-05-22T06:12:32.098Z,6.31
2023-05-22T06:14:58.837Z,6.16
2023-05-22T06:17:25.531Z,6.26
2023-05-22T06:19:52.246Z,6.42
2023-05-22T06:22:18.883Z,7.03
2023-05-22T06:24:45.574Z,6.63
2023-05-22T06:27:12.434Z,6.50
2023-05-22T06:29:39.084Z,6.73
2023-05-22T06:32:06.030Z,6.83
2023-05-22T06:34:32.777Z,6.69
2023-05-22T06:36:59.430Z,14.22
2023-05-22T06:39:26.248Z,20.34
2023-05-22T06:41:52.995Z,17.20
2023-05-22T06:44:19.705Z,13.25
2023-05-22T06:46:46.357Z,13.15
2023-05-22T06:49:13.041Z,9.05
2023-05-22T06:51:39.687Z,8.63
2023-05-22T06:54:06.391Z,10.20
2023-05-22T06:56:33.228Z,9.27
2023-05-22T06:58:59.923Z,8.72
2023-05-22T07:01:26.713Z,9.17
2023-05-22T07:03:53.459Z,8.73
2023-05-22T07:06:20.304Z,8.36
2023-05-22T07:08:47.174Z,8.04
2023-05-22T07:11:14.212Z,7.89
2023-05-22T07:13:40.954Z,7.55
2023-05-22T07:16:07.795Z,7.82
2023-05-22T07:18:34.488Z,8.09
2023-05-22T07:21:01.170Z,8.20
2023-05-22T07:23:27.851Z,8.15
2023-05-22T07:25:54.495Z,7.79
2023-05-22T07:28:21.179Z,8.41
2023-05-22T07:30:48.015Z,8.30
2023-05-22T07:33:14.723Z,8.13
2023-05-22T07:35:41.436Z,8.10
2023-05-22T07:38:08.127Z,7.89
2023-05-22T07:40:34.831Z,7.98
2023-05-22T07:43:01.531Z,7.83
2023-05-22T07:45:28.242Z,8.01
2023-05-22T07:47:56.264Z,7.68
2023-05-22T07:50:23.076Z,7.88
2023-05-22T07:52:49.794Z,7.64
2023-05-22T07:55:16.472Z,7.26
2023-05-22T07:57:43.352Z,7.12
2023-05-22T08:00:10.573Z,7.19
2023-05-22T08:02:37.308Z,7.37
2023-05-22T08:05:04.295Z,7.71
2023-05-22T08:07:31.171Z,7.45
2023-05-22T08:09:57.849Z,7.51
2023-05-22T08:12:24.596Z,8.12
2023-05-22T08:14:51.408Z,8.06
2023-05-22T08:17:18.180Z,11.06
2023-05-22T08:19:45.108Z,24.98
2023-05-22T08:22:11.820Z,10.23
2023-05-22T08:24:38.522Z,8.29
2023-05-22T08:27:05.269Z,7.80
2023-05-22T08:29:32.019Z,7.97
2023-05-22T08:31:58.752Z,7.54
2023-05-22T08:34:25.768Z,8.42
2023-05-22T08:36:52.474Z,7.83
2023-05-22T08:39:19.321Z,7.67
2023-05-22T08:41:47.568Z,7.41
2023-05-22T08:44:14.351Z,7.73
2023-05-22T08:46:41.130Z,7.81
2023-05-22T08:49:08.820Z,7.67
2023-05-22T08:51:38.623Z,7.94
2023-05-22T08:54:05.624Z,7.95
2023-05-22T08:56:35.249Z,8.02
2023-05-22T08:59:04.009Z,7.15
2023-05-22T09:01:31.187Z,7.52
2023-05-22T09:04:01.683Z,7.36
2023-05-22T09:06:28.725Z,7.08
2023-05-22T09:09:01.592Z,7.22
2023-05-22T09:11:28.270Z,7.48
2023-05-22T09:14:06.543Z,7.34
2023-05-22T09:16:33.209Z,8.36
2023-05-22T09:18:59.951Z,8.27
2023-05-22T09:21:30.022Z,8.95
2023-05-22T09:24:00.564Z,9.65
2023-05-22T09:26:30.330Z,8.83
2023-05-22T09:28:59.246Z,8.23
2023-05-22T09:31:25.946Z,8.14
2023-05-22T09:33:52.682Z,7.69
2023-05-22T09:36:19.378Z,7.45
2023-05-22T09:38:46.337Z,7.68
2023-05-22T09:41:13.016Z,7.94
2023-05-22T09:43:39.701Z,7.98
2023-05-22T09:46:06.418Z,7.35
2023-05-22T09:48:36.367Z,8.12
2023-05-22T09:51:03.161Z,7.82
2023-05-22T09:53:29.841Z,7.77
2023-05-22T09:55:56.738Z,7.97
2023-05-22T09:58:23.949Z,7.56
2023-05-22T10:00:50.585Z,7.89
2023-05-22T10:03:17.272Z,8.20
2023-05-22T10:05:48.318Z,8.00
2023-05-22T10:08:15.249Z,7.55
2023-05-22T10:10:43.003Z,8.02
2023-05-22T10:13:09.807Z,8.34
2023-05-22T10:15:36.496Z,8.25
2023-05-22T10:18:03.316Z,7.86
2023-05-22T10:20:30.212Z,8.51
2023-05-22T10:22:56.924Z,7.92
2023-05-22T10:25:23.623Z,7.81
2023-05-22T10:27:52.280Z,7.98
2023-05-22T10:30:24.576Z,7.83
2023-05-22T10:33:13.669Z,8.37
2023-05-22T10:35:53.166Z,7.58
2023-05-22T10:38:45.370Z,7.35
2023-05-22T10:41:12.215Z,7.35
2023-05-22T10:43:42.272Z,7.26
2023-05-22T10:46:09.239Z,6.93
2023-05-22T10:48:38.816Z,7.68
2023-05-22T10:51:09.270Z,7.13
2023-05-22T10:53:36.276Z,7.25
2023-05-22T10:56:35.490Z,7.26
2023-05-22T10:59:02.965Z,7.19
2023-05-22T11:01:29.687Z,7.57
2023-05-22T11:03:59.276Z,7.06
2023-05-22T11:06:38.989Z,7.56
2023-05-22T11:09:27.623Z,7.59
2023-05-22T11:12:13.191Z,7.68
2023-05-22T11:14:39.848Z,7.91
2023-05-22T11:17:06.625Z,7.11
2023-05-22T11:19:33.445Z,7.41
2023-05-22T11:22:00.650Z,7.62
2023-05-22T11:24:27.779Z,8.08
2023-05-22T11:27:10.325Z,8.17
2023-05-22T11:29:36.981Z,7.94
2023-05-22T11:32:03.663Z,7.49
2023-05-22T11:34:30.353Z,9.18
2023-05-22T11:37:00.246Z,8.35
2023-05-22T11:39:27.226Z,8.24
2023-05-22T11:41:53.941Z,8.67
2023-05-22T11:44:20.633Z,7.96
2023-05-22T11:46:47.284Z,8.82
2023-05-22T11:49:13.977Z,8.66
2023-05-22T11:51:40.700Z,8.14
2023-05-22T11:54:07.364Z,8.59
2023-05-22T11:56:34.055Z,8.66
2023-05-22T11:59:00.701Z,8.80
2023-05-22T12:01:27.517Z,8.75
2023-05-22T12:03:54.638Z,8.53
2023-05-22T12:06:21.561Z,9.10
2023-05-22T12:08:48.267Z,8.35
2023-05-22T12:11:14.901Z,8.82
2023-05-22T12:13:41.559Z,9.08
2023-05-22T12:16:18.609Z,10.13
2023-05-22T12:18:45.355Z,10.17
2023-05-22T12:21:12.047Z,9.47
2023-05-22T12:23:51.147Z,9.22
2023-05-22T12:26:17.974Z,8.99
2023-05-22T12:28:44.614Z,8.58
2023-05-22T12:31:11.312Z,8.52
2023-05-22T12:33:39.380Z,8.67
2023-05-22T12:36:09.392Z,10.50
2023-05-22T12:38:36.319Z,7.01
2023-05-22T12:41:03.026Z,8.44
2023-05-22T12:43:29.663Z,7.95
2023-05-22T12:45:56.346Z,8.27
2023-05-22T12:48:23.348Z,7.33
2023-05-22T12:50:50.002Z,7.11
2023-05-22T12:53:16.679Z,7.28
2023-05-22T12:55:43.395Z,7.44
2023-05-22T12:58:10.007Z,7.37
2023-05-22T13:00:36.596Z,7.39
2023-05-22T13:03:03.973Z,7.35
2023-05-22T13:05:30.686Z,7.47
2023-05-22T13:07:57.381Z,8.84
2023-05-22T13:10:24.022Z,10.87
2023-05-22T13:12:50.708Z,7.60
2023-05-22T13:15:18.252Z,7.10
2023-05-22T13:17:44.962Z,7.06
2023-05-22T13:20:11.859Z,7.08
2023-05-22T13:22:38.637Z,7.16
2023-05-22T13:25:05.851Z,7.09
2023-05-22T13:27:33.829Z,7.70
2023-05-22T13:30:02.289Z,7.13
2023-05-22T13:32:29.037Z,7.63
2023-05-22T13:34:55.763Z,7.52
2023-05-22T13:37:22.629Z,7.69
2023-05-22T13:39:49.317Z,8.15
2023-05-22T13:42:16.099Z,8.25
2023-05-22T13:44:42.802Z,8.51
2023-05-22T13:47:09.591Z,7.70
2023-05-22T13:49:36.317Z,6.98
2023-05-22T13:52:03.100Z,6.84
2023-05-22T13:54:29.895Z,7.29
2023-05-22T13:56:56.551Z,7.17
2023-05-22T13:59:23.548Z,7.06
2023-05-22T14:01:50.327Z,7.22
2023-05-22T14:04:17.035Z,7.03
2023-05-22T14:06:43.685Z,6.27
2023-05-22T14:09:10.330Z,5.08
2023-05-22T14:11:37.109Z,4.34
2023-05-22T14:14:03.779Z,4.27
2023-05-22T14:16:30.590Z,4.21
2023-05-22T14:18:57.339Z,4.19
2023-05-22T14:21:23.996Z,4.23
2023-05-22T14:23:50.726Z,3.91
2023-05-22T14:26:17.410Z,4.10
2023-05-22T14:28:44.227Z,4.11
2023-05-22T14:31:10.926Z,4.19
2023-05-22T14:33:37.622Z,4.31
2023-05-22T14:36:04.402Z,4.34
2023-05-22T14:38:31.879Z,4.60
2023-05-22T14:40:58.553Z,4.38
2023-05-22T14:43:25.193Z,4.38
2023-05-22T14:45:51.946Z,4.22
2023-05-22T14:48:18.673Z,4.50
2023-05-22T14:50:46.524Z,4.25
2023-05-22T14:53:13.373Z,4.39
2023-05-22T14:55:40.225Z,4.23
2023-05-22T14:58:07.195Z,4.59
2023-05-22T15:00:33.979Z,4.24
2023-05-22T15:03:00.764Z,4.02
2023-05-22T15:05:27.472Z,4.70
2023-05-22T15:07:54.151Z,5.12
2023-05-22T15:10:20.830Z,5.33
2023-05-22T15:12:47.518Z,5.37
2023-05-22T15:15:14.160Z,4.94
2023-05-22T15:17:42.881Z,4.90
2023-05-22T15:20:10.626Z,5.01
2023-05-22T15:22:37.313Z,5.06
2023-05-22T15:25:04.864Z,4.78
2023-05-22T15:27:31.716Z,4.40
2023-05-22T15:29:58.366Z,5.20
2023-05-22T15:32:25.074Z,4.85
2023-05-22T15:34:51.772Z,4.93
2023-05-22T15:37:18.709Z,4.85
2023-05-22T15:39:45.331Z,4.89
2023-05-22T15:42:12.053Z,4.98
2023-05-22T15:44:38.714Z,4.90
2023-05-22T15:47:05.510Z,4.89
2023-05-22T15:49:32.188Z,4.26
2023-05-22T15:51:58.877Z,3.97
2023-05-22T15:54:25.574Z,3.86
2023-05-22T15:56:52.218Z,3.70
2023-05-22T15:59:18.912Z,3.57
2023-05-22T16:01:45.642Z,3.67
2023-05-22T16:04:12.436Z,3.51
2023-05-22T16:06:40.232Z,3.57
2023-05-22T16:09:07.099Z,3.60
2023-05-22T16:11:33.822Z,3.66
2023-05-22T16:14:00.485Z,3.82
2023-05-22T16:16:27.226Z,4.08
2023-05-22T16:18:54.001Z,3.98
2023-05-22T16:21:20.657Z,4.24
2023-05-22T16:23:47.334Z,4.10
2023-05-22T16:26:15.226Z,4.03
2023-05-22T16:28:41.872Z,4.58
2023-05-22T16:31:08.622Z,4.53
2023-05-22T16:33:35.334Z,4.82
2023-05-22T16:36:02.417Z,5.35
2023-05-22T16:38:29.067Z,5.71
2023-05-22T16:40:55.737Z,5.74
2023-05-22T16:43:22.381Z,6.07
2023-05-22T16:45:49.067Z,6.72
2023-05-22T16:48:15.794Z,6.91
2023-05-22T16:50:42.484Z,7.08
2023-05-22T16:53:09.179Z,7.10
2023-05-22T16:55:35.849Z,7.10
2023-05-22T16:58:02.556Z,6.14
2023-05-22T17:00:29.591Z,6.22
2023-05-22T17:02:56.571Z,6.27
2023-05-22T17:05:23.329Z,5.38
2023-05-22T17:07:50.055Z,5.88
2023-05-22T17:10:16.768Z,6.16
2023-05-22T17:12:43.574Z,6.32
2023-05-22T17:15:10.686Z,6.09
2023-05-22T17:17:37.427Z,6.32
2023-05-22T17:20:04.220Z,6.56
2023-05-22T17:22:30.897Z,6.44
2023-05-22T17:24:57.552Z,6.66
2023-05-22T17:27:34.864Z,6.49
2023-05-22T17:30:02.561Z,6.90
2023-05-22T17:32:29.377Z,6.49
2023-05-22T17:34:56.183Z,7.60
2023-05-22T17:37:22.912Z,8.53
2023-05-22T17:39:49.600Z,7.89
2023-05-22T17:42:16.282Z,7.22
2023-05-22T17:44:42.981Z,7.27
2023-05-22T17:47:09.618Z,7.61
2023-05-22T17:49:37.050Z,7.67
2023-05-22T17:52:03.725Z,7.86
2023-05-22T17:54:34.190Z,7.66
2023-05-22T17:57:01.108Z,7.35
2023-05-22T17:59:27.796Z,7.40
2023-05-22T18:01:54.513Z,8.43
2023-05-22T18:04:21.272Z,8.61
2023-05-22T18:06:50.157Z,8.46
2023-05-22T18:09:16.841Z,7.97
2023-05-22T18:11:43.545Z,7.84
2023-05-22T18:14:10.261Z,8.21
2023-05-22T18:16:37.005Z,7.54
2023-05-22T18:19:03.828Z,8.12
2023-05-22T18:21:30.664Z,8.25
2023-05-22T18:23:57.561Z,7.61
2023-05-22T18:26:24.227Z,7.66
2023-05-22T18:28:50.881Z,7.66
2023-05-22T18:31:17.664Z,7.76
2023-05-22T18:33:44.487Z,7.83
2023-05-22T18:36:11.918Z,7.61
2023-05-22T18:38:38.578Z,7.86
2023-05-22T18:41:05.960Z,7.76
2023-05-22T18:43:32.608Z,7.45
2023-05-22T18:45:59.233Z,7.87
2023-05-22T18:48:26.102Z,7.84
2023-05-22T18:50:52.903Z,7.82
2023-05-22T18:53:19.597Z,7.83
2023-05-22T18:55:46.290Z,9.14
2023-05-22T18:58:13.124Z,8.90
2023-05-22T19:00:40.029Z,8.06
2023-05-22T19:03:07.010Z,8.76
2023-05-22T19:05:34.819Z,7.77
2023-05-22T19:08:01.470Z,7.64
2023-05-22T19:10:28.220Z,8.03
2023-05-22T19:12:54.887Z,8.02
2023-05-22T19:15:21.549Z,7.89
2023-05-22T19:17:48.297Z,7.84
2023-05-22T19:20:15.018Z,7.86
2023-05-22T19:22:41.782Z,8.00
2023-05-22T19:25:08.590Z,8.09
2023-05-22T19:27:37.245Z,8.41
2023-05-22T19:30:06.194Z,8.95
2023-05-22T19:32:32.905Z,8.35
2023-05-22T19:34:59.598Z,8.87
2023-05-22T19:37:26.251Z,9.08
2023-05-22T19:39:53.908Z,8.73
2023-05-22T19:42:20.651Z,8.89
2023-05-22T19:44:47.416Z,9.21
2023-05-22T19:47:14.101Z,9.06
2023-05-22T19:49:40.725Z,9.61
2023-05-22T19:52:07.447Z,9.32
2023-05-22T19:54:34.866Z,9.90
2023-05-22T19:57:02.309Z,9.37
2023-05-22T19:59:28.957Z,9.71
2023-05-22T20:01:55.664Z,9.25
2023-05-22T20:04:22.420Z,9.53
2023-05-22T20:06:49.108Z,9.63
2023-05-22T20:09:15.975Z,9.60
2023-05-22T20:11:42.635Z,10.11
2023-05-22T20:14:09.517Z,10.83
2023-05-22T20:16:36.283Z,10.56
2023-05-22T20:19:03.041Z,11.48
2023-05-22T20:21:29.701Z,11.36
2023-05-22T20:23:56.622Z,10.96
2023-05-22T20:26:23.293Z,11.25
2023-05-22T20:28:49.924Z,10.98
2023-05-22T20:31:16.717Z,10.78
2023-05-22T20:33:43.452Z,10.61
2023-05-22T20:36:10.147Z,10.85
2023-05-22T20:38:36.815Z,10.43
2023-05-22T20:41:03.456Z,10.27
2023-05-22T20:43:30.106Z,9.97
2023-05-22T20:45:57.418Z,9.80
2023-05-22T20:48:24.146Z,9.76
2023-05-22T20:50:50.913Z,9.71
2023-05-22T20:53:17.607Z,9.89
2023-05-22T20:55:44.488Z,9.05
2023-05-22T20:58:11.130Z,9.41
2023-05-22T21:00:37.942Z,9.74
2023-05-22T21:03:04.813Z,9.27
2023-05-22T21:05:31.574Z,9.30
2023-05-22T21:07:58.304Z,9.64
2023-05-22T21:10:25.054Z,9.01
2023-05-22T21:12:51.767Z,8.80
2023-05-22T21:15:18.455Z,9.00
2023-05-22T21:17:45.179Z,8.89
2023-05-22T21:20:11.881Z,8.90
2023-05-22T21:22:38.573Z,8.98
2023-05-22T21:25:05.632Z,9.03
2023-05-22T21:27:32.352Z,9.61
2023-05-22T21:29:59.048Z,9.14
2023-05-22T21:32:25.783Z,9.35
2023-05-22T21:34:52.497Z,9.15
2023-05-22T21:37:19.144Z,9.39
2023-05-22T21:39:45.852Z,9.11
2023-05-22T21:42:15.054Z,9.60
2023-05-22T21:44:41.763Z,10.30
2023-05-22T21:47:08.538Z,10.76
2023-05-22T21:49:36.221Z,10.94
2023-05-22T21:52:04.854Z,10.25
2023-05-22T21:54:31.486Z,9.54
2023-05-22T21:56:58.178Z,9.41
2023-05-22T21:59:24.840Z,9.59
2023-05-22T22:01:51.585Z,9.18
2023-05-22T22:04:18.325Z,9.28
2023-05-22T22:06:45.022Z,9.19
2023-05-22T22:09:11.705Z,9.80
2023-05-22T22:11:38.387Z,10.46
2023-05-22T22:14:05.025Z,10.16
2023-05-22T22:16:31.732Z,10.30
2023-05-22T22:18:58.559Z,10.00
2023-05-22T22:21:26.409Z,9.90
2023-05-22T22:23:53.076Z,10.29
2023-05-22T22:26:19.743Z,9.80
2023-05-22T22:28:46.447Z,9.80
2023-05-22T22:31:13.124Z,9.51
2023-05-22T22:33:39.771Z,10.17
2023-05-22T22:36:06.616Z,9.67
2023-05-22T22:38:33.268Z,9.87
2023-05-22T22:41:00.317Z,10.00
2023-05-22T22:43:27.007Z,10.64
2023-05-22T22:45:53.686Z,9.72
2023-05-22T22:48:20.360Z,9.46
2023-05-22T22:50:47.012Z,9.90
2023-05-22T22:53:13.646Z,9.39
2023-05-22T22:55:40.539Z,9.36
2023-05-22T22:58:07.438Z,8.95
2023-05-22T23:00:34.109Z,9.38
2023-05-22T23:03:00.834Z,9.47
2023-05-22T23:05:27.590Z,10.01
2023-05-22T23:07:54.378Z,9.88
2023-05-22T23:10:21.062Z,9.75
2023-05-22T23:12:48.051Z,10.06
2023-05-22T23:15:14.880Z,9.90
2023-05-22T23:17:41.592Z,10.12
2023-05-22T23:20:08.589Z,10.43
2023-05-22T23:22:35.232Z,10.54
2023-05-22T23:25:01.967Z,10.47
2023-05-22T23:27:28.734Z,10.56
2023-05-22T23:29:55.383Z,10.39
2023-05-22T23:32:22.035Z,10.76
2023-05-22T23:34:48.744Z,10.48
2023-05-22T23:37:15.443Z,10.18
2023-05-22T23:39:42.118Z,10.44
2023-05-22T23:42:08.892Z,10.55
2023-05-22T23:44:35.580Z,10.30
2023-05-22T23:47:02.404Z,9.81
2023-05-22T23:49:29.195Z,9.70
2023-05-22T23:51:55.838Z,9.72
2023-05-22T23:54:22.467Z,9.88
2023-05-22T23:56:49.109Z,9.99
2023-05-22T23:59:15.869Z,10.01
